Time;durP1;ratioP1;P1;durP2;ratioP2;P2;SDS_P1;SDS_P2;PMS_P1;PMS_P2;Temp;Humidity;BMP_temperature;BMP_pressure;BME280_temperature;BME280_humidity;BME280_pressure;Samples;Min_cycle;Max_cycle;Signal;HPM_P1;HPM_P2
2021/10/21 00:01:00;;;;;;;15.23;1.95;;;;;;;;;;5024505;28;20033;-62
2021/10/21 00:03:31;;;;;;;14.30;3.08;;;;;;;;;;5046505;28;20104;-61
2021/10/21 00:05:57;;;;;;;10.93;1.77;;;;;;;;;;5063906;28;20036;-62
2021/10/21 00:08:25;;;;;;;18.80;2.60;;;;;;;;;;5048986;28;20402;-61
2021/10/21 00:10:51;;;;;;;18.48;2.47;;;;;;;;;;5047748;28;20083;-62
2021/10/21 00:13:16;;;;;;;18.88;2.75;;;;;;;;;;5060382;28;20036;-61
2021/10/21 00:15:42;;;;;;;18.70;3.42;;;;;;;;;;5050059;28;20127;-61
2021/10/21 00:18:08;;;;;;;19.63;2.67;;;;;;;;;;5048236;28;20131;-61
2021/10/21 00:20:33;;;;;;;17.25;2.65;;;;;;;;;;5047139;28;20119;-62
2021/10/21 00:22:59;;;;;;;9.30;2.65;;;;;;;;;;5040873;28;20028;-62
2021/10/21 00:25:27;;;;;;;17.90;2.28;;;;;;;;;;5047253;28;20028;-63
2021/10/21 00:27:53;;;;;;;21.65;2.90;;;;;;;;;;5050478;28;20968;-61
2021/10/21 00:30:19;;;;;;;15.10;2.63;;;;;;;;;;5047104;28;20044;-62
2021/10/21 00:32:44;;;;;;;21.48;2.88;;;;;;;;;;5039493;28;20665;-61
2021/10/21 00:35:10;;;;;;;13.55;2.50;;;;;;;;;;5054069;28;20794;-62
2021/10/21 00:37:35;;;;;;;19.05;2.90;;;;;;;;;;5032324;28;20382;-60
2021/10/21 00:40:02;;;;;;;21.08;3.03;;;;;;;;;;5050255;28;21154;-61
2021/10/21 00:42:27;;;;;;;30.83;2.80;;;;;;;;;;5037934;28;20107;-59
2021/10/21 00:44:53;;;;;;;17.55;2.65;;;;;;;;;;5048976;28;20038;-60
2021/10/21 00:47:21;;;;;;;13.27;2.33;;;;;;;;;;5049515;28;20114;-60
2021/10/21 00:49:51;;;;;;;32.78;3.15;;;;;;;;;;5049180;28;20029;-59
2021/10/21 00:52:17;;;;;;;16.85;2.45;;;;;;;;;;5051768;28;20036;-58
2021/10/21 00:54:46;;;;;;;19.15;2.45;;;;;;;;;;5049586;28;20020;-58
2021/10/21 00:57:12;;;;;;;18.77;2.65;;;;;;;;;;5050271;28;20029;-58
2021/10/21 00:59:42;;;;;;;15.77;2.38;;;;;;;;;;5049027;28;20033;-57
2021/10/21 01:02:10;;;;;;;20.23;3.88;;;;;;;;;;5047955;28;20033;-57
2021/10/21 01:04:36;;;;;;;21.67;2.70;;;;;;;;;;5048411;28;20455;-57
2021/10/21 01:07:05;;;;;;;21.30;2.97;;;;;;;;;;5046151;28;20044;-58
2021/10/21 01:09:31;;;;;;;13.40;3.40;;;;;;;;;;5048303;28;20715;-58
2021/10/21 01:11:57;;;;;;;36.45;3.92;;;;;;;;;;5064677;28;20036;-58
2021/10/21 01:14:22;;;;;;;11.93;3.45;;;;;;;;;;5048066;28;20418;-58
2021/10/21 01:16:53;;;;;;;57.65;4.80;;;;;;;;;;5050316;28;20052;-58
2021/10/21 01:19:24;;;;;;;25.98;4.10;;;;;;;;;;5047633;28;20749;-58
2021/10/21 01:21:52;;;;;;;33.35;4.63;;;;;;;;;;5060620;28;20056;-59
2021/10/21 01:24:21;;;;;;;37.15;4.50;;;;;;;;;;5044692;28;20028;-60
2021/10/21 01:26:52;;;;;;;37.38;5.28;;;;;;;;;;5063426;28;20023;-60
2021/10/21 01:29:19;;;;;;;23.30;4.25;;;;;;;;;;5048064;28;20043;-60
2021/10/21 01:31:46;;;;;;;29.50;5.28;;;;;;;;;;5047263;28;20025;-59
2021/10/21 01:34:12;;;;;;;32.78;4.88;;;;;;;;;;5046965;28;20044;-59
2021/10/21 01:36:41;;;;;;;18.67;4.85;;;;;;;;;;5046711;28;20367;-60
2021/10/21 01:39:08;;;;;;;16.98;5.53;;;;;;;;;;5048167;28;20046;-59
2021/10/21 01:41:34;;;;;;;35.92;5.25;;;;;;;;;;5049084;28;20411;-59
2021/10/21 01:43:59;;;;;;;18.33;5.18;;;;;;;;;;5045214;28;21874;-60
2021/10/21 01:46:25;;;;;;;26.30;4.65;;;;;;;;;;5048667;28;20106;-60
2021/10/21 01:48:50;;;;;;;22.92;5.80;;;;;;;;;;5043821;28;20129;-61
2021/10/21 01:51:18;;;;;;;36.72;5.35;;;;;;;;;;5007960;28;20041;-59
2021/10/21 01:53:47;;;;;;;38.80;5.32;;;;;;;;;;5059678;28;20055;-59
2021/10/21 01:56:13;;;;;;;33.10;5.72;;;;;;;;;;5061588;28;20037;-59
2021/10/21 01:58:38;;;;;;;13.85;5.38;;;;;;;;;;5036498;28;20035;-59
2021/10/21 02:01:06;;;;;;;23.98;5.85;;;;;;;;;;5046192;28;20052;-59
2021/10/21 02:03:34;;;;;;;17.42;5.25;;;;;;;;;;5024557;28;20025;-59
2021/10/21 02:06:03;;;;;;;17.98;4.90;;;;;;;;;;5029842;28;20085;-59
2021/10/21 02:08:33;;;;;;;15.60;4.55;;;;;;;;;;5045285;28;20028;-58
2021/10/21 02:11:01;;;;;;;11.50;4.47;;;;;;;;;;5045849;28;20066;-58
2021/10/21 02:13:28;;;;;;;20.20;4.10;;;;;;;;;;5046041;28;21016;-58
2021/10/21 02:15:54;;;;;;;16.88;4.78;;;;;;;;;;5045285;28;20047;-59
2021/10/21 02:18:21;;;;;;;16.70;4.50;;;;;;;;;;5046032;28;20048;-61
2021/10/21 02:20:46;;;;;;;20.50;4.60;;;;;;;;;;5029247;28;20040;-60
2021/10/21 02:23:16;;;;;;;48.70;5.63;;;;;;;;;;5044417;28;20067;-61
2021/10/21 02:25:42;;;;;;;7.72;3.53;;;;;;;;;;5047741;28;20064;-59
2021/10/21 02:28:07;;;;;;;13.63;3.17;;;;;;;;;;5043793;28;20136;-60
2021/10/21 02:30:35;;;;;;;18.10;2.40;;;;;;;;;;5046789;28;20149;-60
2021/10/21 02:33:00;;;;;;;138.27;6.43;;;;;;;;;;5044118;28;20032;-61
2021/10/21 02:35:25;;;;;;;86.43;5.10;;;;;;;;;;5045245;28;20047;-61
2021/10/21 02:37:51;;;;;;;46.53;3.95;;;;;;;;;;5042920;28;20032;-62
2021/10/21 02:40:17;;;;;;;23.52;2.95;;;;;;;;;;5045480;28;20704;-61
2021/10/21 02:42:43;;;;;;;10.38;2.15;;;;;;;;;;5046177;28;20020;-61
2021/10/21 02:45:09;;;;;;;6.72;1.85;;;;;;;;;;5044353;28;22084;-59
2021/10/21 02:47:35;;;;;;;8.93;1.73;;;;;;;;;;5045764;28;20067;-61
2021/10/21 02:50:01;;;;;;;14.85;2.00;;;;;;;;;;5045822;28;20025;-59
2021/10/21 02:52:26;;;;;;;121.40;5.28;;;;;;;;;;5048525;28;21954;-62
2021/10/21 02:54:51;;;;;;;5.18;1.15;;;;;;;;;;5048683;28;20123;-60
2021/10/21 02:57:19;;;;;;;7.70;1.48;;;;;;;;;;5046357;28;20031;-59
2021/10/21 02:59:47;;;;;;;10.68;1.80;;;;;;;;;;5044345;28;20036;-60
2021/10/21 03:02:17;;;;;;;14.82;1.92;;;;;;;;;;5031299;28;20020;-59
2021/10/21 03:04:42;;;;;;;2.70;0.73;;;;;;;;;;5046364;28;20052;-59
2021/10/21 03:07:08;;;;;;;0.70;0.60;;;;;;;;;;5047936;28;20017;-58
2021/10/21 03:09:35;;;;;;;6.05;1.33;;;;;;;;;;5048807;28;20040;-57
2021/10/21 03:12:03;;;;;;;3.17;1.85;;;;;;;;;;5047599;28;20078;-59
2021/10/21 03:14:33;;;;;;;4.18;1.00;;;;;;;;;;5033771;28;20167;-58
2021/10/21 03:17:02;;;;;;;5.53;0.95;;;;;;;;;;5046711;28;20037;-57
2021/10/21 03:19:27;;;;;;;8.85;1.35;;;;;;;;;;5044995;28;20035;-57
2021/10/21 03:21:52;;;;;;;5.30;1.33;;;;;;;;;;5029240;28;20098;-58
2021/10/21 03:24:18;;;;;;;3.47;0.90;;;;;;;;;;5045157;28;20107;-57
2021/10/21 03:26:44;;;;;;;2.15;1.08;;;;;;;;;;5044612;28;20035;-58
2021/10/21 03:29:09;;;;;;;9.68;1.90;;;;;;;;;;5060201;28;20052;-58
2021/10/21 03:31:35;;;;;;;4.80;1.60;;;;;;;;;;5042833;28;20170;-59
2021/10/21 03:34:00;;;;;;;6.40;1.88;;;;;;;;;;5043169;28;20036;-57
2021/10/21 03:36:29;;;;;;;9.40;1.33;;;;;;;;;;5047351;28;20033;-59
2021/10/21 03:38:54;;;;;;;12.70;1.30;;;;;;;;;;5047693;28;20028;-58
2021/10/21 03:41:20;;;;;;;3.80;0.70;;;;;;;;;;5044083;28;21015;-57
2021/10/21 03:43:48;;;;;;;4.57;0.82;;;;;;;;;;5026484;28;20017;-59
2021/10/21 03:46:14;;;;;;;7.72;1.38;;;;;;;;;;5047934;28;20136;-59
2021/10/21 03:48:41;;;;;;;7.53;1.08;;;;;;;;;;5047509;28;20056;-58
2021/10/21 03:51:09;;;;;;;21.83;1.42;;;;;;;;;;5031647;28;20398;-59
2021/10/21 03:53:35;;;;;;;2.33;0.88;;;;;;;;;;5061924;28;20033;-58
2021/10/21 03:56:00;;;;;;;6.28;1.10;;;;;;;;;;5048859;28;20028;-59
2021/10/21 03:58:26;;;;;;;6.38;0.90;;;;;;;;;;5049670;28;20033;-57
2021/10/21 04:00:56;;;;;;;6.93;0.65;;;;;;;;;;5061051;28;20047;-57
2021/10/21 04:03:22;;;;;;;8.18;0.90;;;;;;;;;;5047683;28;20041;-57
2021/10/21 04:05:59;;;;;;;6.53;0.75;;;;;;;;;;5048716;28;20039;-58
2021/10/21 04:08:25;;;;;;;4.50;1.00;;;;;;;;;;5045405;28;20953;-57
2021/10/21 04:10:50;;;;;;;1.77;0.85;;;;;;;;;;5033116;28;20037;-58
2021/10/21 04:13:16;;;;;;;3.70;0.88;;;;;;;;;;5046254;28;20032;-57
2021/10/21 04:15:44;;;;;;;4.18;0.82;;;;;;;;;;5015389;28;20064;-57
2021/10/21 04:18:12;;;;;;;6.85;1.10;;;;;;;;;;5049453;28;20024;-57
2021/10/21 04:20:40;;;;;;;7.97;0.82;;;;;;;;;;5015139;28;20102;-58
2021/10/21 04:23:05;;;;;;;8.10;0.85;;;;;;;;;;5046111;28;22124;-59
2021/10/21 04:25:30;;;;;;;7.65;1.33;;;;;;;;;;5048090;28;20023;-58
2021/10/21 04:27:56;;;;;;;3.72;0.90;;;;;;;;;;5065449;28;20776;-58
2021/10/21 04:30:21;;;;;;;4.50;0.70;;;;;;;;;;5046624;28;20367;-56
2021/10/21 04:32:52;;;;;;;3.20;1.88;;;;;;;;;;5044020;28;20033;-59
2021/10/21 04:35:25;;;;;;;7.80;1.38;;;;;;;;;;5046645;28;20041;-56
2021/10/21 04:37:50;;;;;;;3.78;0.70;;;;;;;;;;5048524;28;20036;-57
2021/10/21 04:40:19;;;;;;;3.25;0.68;;;;;;;;;;5050042;28;20034;-59
2021/10/21 04:42:49;;;;;;;12.35;1.30;;;;;;;;;;5045847;28;20040;-57
2021/10/21 04:45:17;;;;;;;1.92;0.43;;;;;;;;;;5045605;28;20037;-58
2021/10/21 04:47:42;;;;;;;4.30;0.80;;;;;;;;;;5032005;28;20033;-56
2021/10/21 04:50:10;;;;;;;3.72;0.82;;;;;;;;;;5031020;28;20037;-56
2021/10/21 04:52:37;;;;;;;9.85;1.05;;;;;;;;;;5047579;28;20032;-57
2021/10/21 04:55:03;;;;;;;4.40;0.60;;;;;;;;;;5064727;28;20029;-56
2021/10/21 04:57:31;;;;;;;3.35;0.70;;;;;;;;;;5048508;28;20028;-57
2021/10/21 04:59:59;;;;;;;0.00;0.00;;;;;;;;;;5045226;28;20028;-57
2021/10/21 05:02:25;;;;;;;0.17;0.17;;;;;;;;;;5047205;28;20725;-60
2021/10/21 05:04:51;;;;;;;0.00;0.00;;;;;;;;;;5048697;28;20013;-57
2021/10/21 05:07:16;;;;;;;0.00;0.00;;;;;;;;;;5048504;28;20028;-55
2021/10/21 05:09:44;;;;;;;0.43;0.25;;;;;;;;;;5029906;28;20131;-56
2021/10/21 05:12:09;;;;;;;0.00;0.00;;;;;;;;;;5047317;28;20425;-55
2021/10/21 05:14:37;;;;;;;0.00;0.00;;;;;;;;;;5045099;28;20032;-57
2021/10/21 05:17:02;;;;;;;0.00;0.00;;;;;;;;;;5030294;28;20090;-59
2021/10/21 05:19:28;;;;;;;0.00;0.00;;;;;;;;;;5046442;28;20049;-56
2021/10/21 05:21:56;;;;;;;0.00;0.00;;;;;;;;;;5030768;28;20028;-58
2021/10/21 05:24:21;;;;;;;0.00;0.00;;;;;;;;;;5047583;28;20028;-57
2021/10/21 05:26:47;;;;;;;0.00;0.00;;;;;;;;;;5047370;28;20036;-57
2021/10/21 05:29:15;;;;;;;1.65;0.90;;;;;;;;;;5045729;28;20122;-57
2021/10/21 05:31:40;;;;;;;0.00;0.00;;;;;;;;;;5049337;28;20020;-58
2021/10/21 05:34:06;;;;;;;0.00;0.00;;;;;;;;;;5058645;28;20649;-58
2021/10/21 05:36:34;;;;;;;0.00;0.00;;;;;;;;;;5049063;28;20733;-57
2021/10/21 05:39:03;;;;;;;0.00;0.00;;;;;;;;;;5029209;28;20035;-57
2021/10/21 05:41:28;;;;;;;0.00;0.00;;;;;;;;;;5047860;28;20450;-56
2021/10/21 05:43:56;;;;;;;0.00;0.00;;;;;;;;;;5048999;28;20078;-57
2021/10/21 05:46:22;;;;;;;0.32;0.32;;;;;;;;;;5045346;28;20039;-56
2021/10/21 05:48:50;;;;;;;0.00;0.00;;;;;;;;;;5047377;28;20028;-56
2021/10/21 05:51:18;;;;;;;12.00;1.30;;;;;;;;;;5047874;28;20039;-57
2021/10/21 05:53:46;;;;;;;13.70;1.20;;;;;;;;;;5046689;28;20113;-57
2021/10/21 05:56:18;;;;;;;16.40;0.70;;;;;;;;;;5048741;28;20032;-57
2021/10/21 06:02:22;;;;;;;20.23;1.08;;;;;;;;;;5047975;28;20039;-56
2021/10/21 06:04:52;;;;;;;34.95;1.63;;;;;;;;;;5046298;28;20487;-54
2021/10/21 06:07:20;;;;;;;8.00;1.35;;;;;;;;;;5046442;28;20123;-56
2021/10/21 06:09:45;;;;;;;8.18;1.23;;;;;;;;;;5046358;28;20047;-55
2021/10/21 06:12:11;;;;;;;17.00;1.45;;;;;;;;;;5032554;28;20036;-57
2021/10/21 06:14:38;;;;;;;10.73;1.02;;;;;;;;;;5045896;28;20029;-56
2021/10/21 06:17:07;;;;;;;11.38;1.05;;;;;;;;;;5029814;28;20131;-56
2021/10/21 06:19:40;;;;;;;9.02;1.58;;;;;;;;;;5046939;28;20024;-55
2021/10/21 06:22:09;;;;;;;8.95;1.17;;;;;;;;;;5060218;28;20035;-56
2021/10/21 06:24:37;;;;;;;13.98;1.25;;;;;;;;;;5030424;28;20033;-55
2021/10/21 06:27:07;;;;;;;12.57;1.25;;;;;;;;;;5045728;28;20037;-53
2021/10/21 06:29:32;;;;;;;10.05;1.00;;;;;;;;;;5048549;28;20679;-56
2021/10/21 06:32:01;;;;;;;17.38;1.65;;;;;;;;;;5044215;28;20715;-55
2021/10/21 06:34:26;;;;;;;14.32;1.20;;;;;;;;;;5058540;28;20036;-56
2021/10/21 06:36:52;;;;;;;6.30;1.40;;;;;;;;;;5044179;28;20040;-57
2021/10/21 06:39:20;;;;;;;7.40;0.65;;;;;;;;;;5045467;28;20063;-57
2021/10/21 06:41:50;;;;;;;13.90;1.00;;;;;;;;;;5030060;28;20025;-55
2021/10/21 06:44:18;;;;;;;5.10;0.73;;;;;;;;;;5060198;28;20040;-56
2021/10/21 06:46:44;;;;;;;11.48;1.05;;;;;;;;;;5045453;28;20032;-58
2021/10/21 06:49:14;;;;;;;9.55;1.05;;;;;;;;;;5038146;28;20029;-58
2021/10/21 06:51:44;;;;;;;6.25;0.95;;;;;;;;;;5045370;28;20025;-58
2021/10/21 06:54:12;;;;;;;14.50;1.05;;;;;;;;;;5028002;28;20051;-57
2021/10/21 06:56:42;;;;;;;8.75;1.17;;;;;;;;;;5023899;28;20123;-56
2021/10/21 06:59:10;;;;;;;13.07;1.38;;;;;;;;;;5031390;28;20750;-57
2021/10/21 07:01:38;;;;;;;9.27;0.75;;;;;;;;;;5029175;28;20120;-57
2021/10/21 07:04:05;;;;;;;11.85;1.10;;;;;;;;;;5035017;28;20025;-57
2021/10/21 07:06:31;;;;;;;7.82;1.20;;;;;;;;;;5048186;28;20029;-57
2021/10/21 07:08:57;;;;;;;10.70;0.98;;;;;;;;;;5061991;28;20360;-56
2021/10/21 07:11:22;;;;;;;11.02;0.95;;;;;;;;;;5044102;28;20057;-58
2021/10/21 07:13:50;;;;;;;5.75;1.00;;;;;;;;;;5044469;28;20570;-57
2021/10/21 07:16:15;;;;;;;6.65;1.17;;;;;;;;;;5042354;28;20028;-58
2021/10/21 07:18:41;;;;;;;10.70;1.13;;;;;;;;;;5042309;28;20051;-56
2021/10/21 07:21:09;;;;;;;9.10;1.00;;;;;;;;;;5046400;28;20596;-58
2021/10/21 07:23:39;;;;;;;4.60;0.93;;;;;;;;;;5065502;28;20064;-57
2021/10/21 07:26:07;;;;;;;10.98;0.85;;;;;;;;;;5051179;28;20077;-58
2021/10/21 07:28:39;;;;;;;9.35;1.05;;;;;;;;;;5051188;28;20037;-59
2021/10/21 07:31:09;;;;;;;5.65;0.77;;;;;;;;;;5019147;28;20101;-57
2021/10/21 07:33:44;;;;;;;7.95;1.58;;;;;;;;;;5049074;28;20066;-56
2021/10/21 07:36:12;;;;;;;;;;;;;;;;;;5045936;28;20028;-56
2021/10/21 07:38:43;;;;;;;5.75;0.80;;;;;;;;;;5048239;28;19946;-58
2021/10/21 07:41:11;;;;;;;7.15;0.90;;;;;;;;;;5047372;28;20040;-58
2021/10/21 07:44:05;;;;;;;6.75;1.33;;;;;;;;;;5048324;28;20024;-58
2021/10/21 07:46:31;;;;;;;5.55;1.27;;;;;;;;;;5048721;28;20032;-58
2021/10/21 07:49:11;;;;;;;6.50;0.85;;;;;;;;;;5045673;28;20078;-57
2021/10/21 07:51:39;;;;;;;12.50;1.63;;;;;;;;;;5050039;28;20548;-57
2021/10/21 07:54:05;;;;;;;2.53;0.70;;;;;;;;;;5048184;28;20076;-58
2021/10/21 07:56:33;;;;;;;3.70;0.50;;;;;;;;;;5050815;28;20039;-57
2021/10/21 08:02:36;;;;;;;7.22;0.70;;;;;;;;;;5047914;28;20042;-57
2021/10/21 08:05:01;;;;;;;3.30;0.55;;;;;;;;;;5048359;28;20663;-58
2021/10/21 08:07:27;;;;;;;20.42;1.08;;;;;;;;;;5022932;28;20028;-57
2021/10/21 08:09:52;;;;;;;4.80;0.63;;;;;;;;;;5031247;28;20160;-57
2021/10/21 08:12:21;;;;;;;5.65;0.90;;;;;;;;;;5048848;28;20043;-57
2021/10/21 08:17:54;;;;;;;11.25;0.95;;;;;;;;;;5050226;28;20071;-57
2021/10/21 08:20:27;;;;;;;9.05;0.95;;;;;;;;;;5064953;28;20044;-57
2021/10/21 08:22:53;;;;;;;7.72;0.60;;;;;;;;;;5048121;28;20029;-58
2021/10/21 08:25:28;;;;;;;7.78;0.90;;;;;;;;;;5049364;28;20033;-58
2021/10/21 08:27:56;;;;;;;3.97;0.47;;;;;;;;;;5015715;28;20041;-58
2021/10/21 08:30:26;;;;;;;6.20;0.80;;;;;;;;;;5032091;28;20028;-59
2021/10/21 08:33:03;;;;;;;4.32;0.68;;;;;;;;;;5048739;28;20086;-57
2021/10/21 08:35:31;;;;;;;9.93;0.98;;;;;;;;;;5048705;28;20109;-58
2021/10/21 08:37:58;;;;;;;37.38;2.40;;;;;;;;;;5027877;28;20027;-59
2021/10/21 08:40:24;;;;;;;3.05;0.50;;;;;;;;;;5065485;28;20044;-59
2021/10/21 08:43:11;;;;;;;2.63;0.82;;;;;;;;;;5048371;28;20025;-58
2021/10/21 08:49:13;;;;;;;11.10;0.93;;;;;;;;;;5047411;28;20482;-58
2021/10/21 08:55:14;;;;;;;11.18;0.85;;;;;;;;;;5049288;28;20611;-57
2021/10/21 09:01:21;;;;;;;7.28;0.85;;;;;;;;;;5049578;28;20153;-57
2021/10/21 09:04:00;;;;;;;6.70;1.10;;;;;;;;;;5064465;28;20036;-57
2021/10/21 09:08:59;;;;;;;6.95;0.93;;;;;;;;;;5048917;28;20036;-57
2021/10/21 09:11:24;;;;;;;5.13;0.82;;;;;;;;;;5049571;28;20734;-59
2021/10/21 09:14:09;;;;;;;8.10;1.02;;;;;;;;;;5048448;28;20036;-60
2021/10/21 09:16:39;;;;;;;6.82;1.15;;;;;;;;;;5062153;28;20075;-57
2021/10/21 09:19:07;;;;;;;6.82;0.75;;;;;;;;;;5047047;28;20039;-57
2021/10/21 09:21:39;;;;;;;5.63;0.65;;;;;;;;;;5047470;28;20089;-57
2021/10/21 09:24:24;;;;;;;11.45;0.93;;;;;;;;;;5048650;28;20035;-57
2021/10/21 09:26:58;;;;;;;7.63;0.80;;;;;;;;;;5046740;28;20036;-57
2021/10/21 09:29:24;;;;;;;8.38;1.10;;;;;;;;;;5043862;28;20032;-57
2021/10/21 09:32:01;;;;;;;4.65;0.40;;;;;;;;;;5049203;28;20024;-58
2021/10/21 09:34:27;;;;;;;4.95;0.60;;;;;;;;;;5047606;28;20055;-57
2021/10/21 09:36:55;;;;;;;2.78;0.90;;;;;;;;;;5048270;28;20119;-57
2021/10/21 09:39:21;;;;;;;16.63;1.42;;;;;;;;;;5044481;28;20036;-57
2021/10/21 09:41:53;;;;;;;7.13;1.67;;;;;;;;;;5047534;28;20078;-57
2021/10/21 09:44:27;;;;;;;13.98;1.73;;;;;;;;;;5046243;28;20093;-57
2021/10/21 09:46:53;;;;;;;9.82;1.35;;;;;;;;;;5044023;28;20148;-57
2021/10/21 09:49:22;;;;;;;13.52;0.82;;;;;;;;;;5044802;28;21276;-58
2021/10/21 09:51:50;;;;;;;6.93;0.95;;;;;;;;;;5047812;28;20372;-57
2021/10/21 09:54:19;;;;;;;7.47;0.73;;;;;;;;;;5047121;28;20081;-57
2021/10/21 09:56:59;;;;;;;8.05;0.90;;;;;;;;;;5062559;28;20108;-57
2021/10/21 09:59:28;;;;;;;7.20;1.10;;;;;;;;;;5062061;28;21475;-57
2021/10/21 10:01:56;;;;;;;11.52;0.98;;;;;;;;;;5045427;28;20028;-58
2021/10/21 10:04:27;;;;;;;3.03;0.80;;;;;;;;;;5028009;28;20079;-58
2021/10/21 10:06:58;;;;;;;6.57;0.82;;;;;;;;;;5029573;28;20033;-58
2021/10/21 10:09:30;;;;;;;8.27;0.82;;;;;;;;;;5046968;28;20637;-58
2021/10/21 10:11:59;;;;;;;11.82;1.35;;;;;;;;;;5037358;28;20047;-58
2021/10/21 10:14:26;;;;;;;3.92;0.95;;;;;;;;;;5045023;28;20827;-60
2021/10/21 10:16:53;;;;;;;8.90;0.73;;;;;;;;;;5048194;28;20044;-58
2021/10/21 10:19:21;;;;;;;10.55;0.95;;;;;;;;;;5060524;28;20031;-58
2021/10/21 10:22:08;;;;;;;5.65;1.08;;;;;;;;;;5061957;28;20131;-58
2021/10/21 10:24:35;;;;;;;4.82;0.85;;;;;;;;;;5044526;28;20039;-58
2021/10/21 10:27:03;;;;;;;12.45;1.10;;;;;;;;;;5047508;28;20028;-58
2021/10/21 10:29:31;;;;;;;7.53;0.68;;;;;;;;;;5018948;28;20499;-58
2021/10/21 10:32:03;;;;;;;15.55;1.27;;;;;;;;;;5029760;28;20024;-58
2021/10/21 10:34:32;;;;;;;9.45;1.20;;;;;;;;;;5045118;28;20024;-58
2021/10/21 10:37:12;;;;;;;7.32;0.95;;;;;;;;;;5043607;28;20431;-58
2021/10/21 10:39:51;;;;;;;11.25;0.93;;;;;;;;;;5045622;28;20040;-58
2021/10/21 10:42:37;;;;;;;7.25;0.65;;;;;;;;;;5062313;28;20483;-58
2021/10/21 10:45:05;;;;;;;6.18;1.08;;;;;;;;;;5037910;28;20051;-58
2021/10/21 10:47:36;;;;;;;7.00;1.15;;;;;;;;;;5046402;28;20017;-58
2021/10/21 10:50:01;;;;;;;11.35;1.38;;;;;;;;;;5061631;28;20448;-58
2021/10/21 10:52:44;;;;;;;14.18;1.92;;;;;;;;;;5046039;28;20057;-58
2021/10/21 10:55:19;;;;;;;8.90;1.00;;;;;;;;;;5045980;28;20040;-59
2021/10/21 10:58:21;;;;;;;5.35;1.23;;;;;;;;;;5048226;28;20609;-59
2021/10/21 11:04:54;;;;;;;10.70;1.38;;;;;;;;;;5050962;28;20791;-59
2021/10/21 11:07:25;;;;;;;10.10;1.20;;;;;;;;;;4995419;28;20044;-58
2021/10/21 11:09:54;;;;;;;11.98;1.70;;;;;;;;;;5049195;28;20044;-59
2021/10/21 11:12:25;;;;;;;22.95;1.73;;;;;;;;;;5051018;28;20029;-59
2021/10/21 11:14:57;;;;;;;17.50;1.30;;;;;;;;;;5048679;28;20048;-59
2021/10/21 11:17:45;;;;;;;12.73;1.75;;;;;;;;;;5049272;28;20063;-58
2021/10/21 11:20:26;;;;;;;11.57;1.00;;;;;;;;;;5040573;28;20040;-59
2021/10/21 11:22:52;;;;;;;10.40;1.35;;;;;;;;;;5041459;28;20063;-58
2021/10/21 11:25:18;;;;;;;5.95;0.85;;;;;;;;;;5047504;28;20115;-58
2021/10/21 11:27:44;;;;;;;4.63;0.70;;;;;;;;;;5029170;28;20036;-59
2021/10/21 11:30:17;;;;;;;7.65;1.50;;;;;;;;;;5065120;28;20016;-58
2021/10/21 11:32:43;;;;;;;11.45;1.17;;;;;;;;;;5049009;28;20039;-59
2021/10/21 11:35:14;;;;;;;9.70;1.17;;;;;;;;;;5049321;28;20964;-59
2021/10/21 11:37:48;;;;;;;14.57;1.23;;;;;;;;;;5061537;28;20273;-59
2021/10/21 11:40:35;;;;;;;18.00;1.13;;;;;;;;;;5044501;28;20101;-58
2021/10/21 11:43:01;;;;;;;14.57;1.27;;;;;;;;;;5034761;28;20040;-59
2021/10/21 11:48:41;;;;;;;9.82;1.00;;;;;;;;;;5048615;28;20928;-61
2021/10/21 11:51:12;;;;;;;6.75;0.60;;;;;;;;;;5048660;28;20718;-59
2021/10/21 11:53:40;;;;;;;4.53;0.75;;;;;;;;;;5047998;28;20043;-58
2021/10/21 11:56:06;;;;;;;12.18;0.90;;;;;;;;;;5048179;28;20059;-58
2021/10/21 11:58:38;;;;;;;6.72;0.60;;;;;;;;;;5046850;28;20028;-58
2021/10/21 12:01:10;;;;;;;1.95;0.47;;;;;;;;;;5047329;28;20131;-59
2021/10/21 12:03:45;;;;;;;8.65;1.45;;;;;;;;;;5049413;28;20032;-57
2021/10/21 12:06:14;;;;;;;4.50;0.52;;;;;;;;;;5050096;28;20617;-58
2021/10/21 12:08:47;;;;;;;3.35;0.20;;;;;;;;;;5008946;28;1111926;-57
2021/10/21 12:11:17;;;;;;;3.13;0.28;;;;;;;;;;5063012;28;20032;-57
2021/10/21 12:13:42;;;;;;;4.88;1.00;;;;;;;;;;5065945;28;20040;-58
2021/10/21 12:16:14;;;;;;;2.90;0.50;;;;;;;;;;5047964;28;20020;-60
2021/10/21 12:18:40;;;;;;;12.20;1.67;;;;;;;;;;5048117;28;20071;-61
2021/10/21 12:21:13;;;;;;;7.65;0.68;;;;;;;;;;5032581;28;20052;-58
2021/10/21 12:23:44;;;;;;;3.92;0.88;;;;;;;;;;5050055;28;20025;-59
2021/10/21 12:26:17;;;;;;;4.20;0.80;;;;;;;;;;5051735;28;20028;-59
2021/10/21 12:28:49;;;;;;;5.28;1.10;;;;;;;;;;5047878;28;20041;-59
2021/10/21 12:31:33;;;;;;;10.88;0.70;;;;;;;;;;5024605;28;20048;-59
2021/10/21 12:34:02;;;;;;;5.68;0.77;;;;;;;;;;5022894;28;20115;-60
2021/10/21 12:36:44;;;;;;;9.35;1.00;;;;;;;;;;5023878;28;20045;-59
2021/10/21 12:39:32;;;;;;;6.07;1.10;;;;;;;;;;5008690;28;20034;-59
2021/10/21 12:42:06;;;;;;;5.05;0.65;;;;;;;;;;5022184;28;20054;-59
2021/10/21 12:44:35;;;;;;;3.42;0.68;;;;;;;;;;4992598;28;20038;-60
2021/10/21 12:47:06;;;;;;;8.75;0.93;;;;;;;;;;5004867;28;20499;-58
2021/10/21 12:49:54;;;;;;;12.82;1.30;;;;;;;;;;5022012;28;20025;-61
2021/10/21 12:52:24;;;;;;;3.97;1.13;;;;;;;;;;5022295;28;20698;-59
2021/10/21 12:55:08;;;;;;;9.63;1.05;;;;;;;;;;5006657;28;20036;-60
2021/10/21 12:58:06;;;;;;;4.13;0.73;;;;;;;;;;5020808;28;20037;-59
2021/10/21 13:00:32;;;;;;;4.68;0.95;;;;;;;;;;5009834;28;20267;-59
2021/10/21 13:06:33;;;;;;;6.53;1.33;;;;;;;;;;5047952;28;20140;-60
2021/10/21 13:12:28;;;;;;;3.55;1.00;;;;;;;;;;5048598;28;20226;-60
2021/10/21 13:14:54;;;;;;;8.40;1.48;;;;;;;;;;5062605;28;20555;-60
2021/10/21 13:17:20;;;;;;;7.97;1.20;;;;;;;;;;5038968;28;20732;-60
2021/10/21 13:19:48;;;;;;;9.18;1.02;;;;;;;;;;5045692;28;20020;-60
2021/10/21 13:22:17;;;;;;;8.98;1.33;;;;;;;;;;5058265;28;20131;-59
2021/10/21 13:24:44;;;;;;;7.50;1.38;;;;;;;;;;5032327;28;20029;-59
2021/10/21 13:27:10;;;;;;;9.60;1.48;;;;;;;;;;5027861;28;20120;-60
2021/10/21 13:30:12;;;;;;;11.35;1.50;;;;;;;;;;5010232;28;20698;-59
2021/10/21 13:32:38;;;;;;;29.27;2.85;;;;;;;;;;5062873;28;20051;-59
2021/10/21 13:35:04;;;;;;;16.67;2.97;;;;;;;;;;5046639;28;20498;-59
2021/10/21 13:37:34;;;;;;;21.10;2.25;;;;;;;;;;5047099;28;20035;-60
2021/10/21 13:40:00;;;;;;;26.30;3.40;;;;;;;;;;5048760;28;20125;-61
2021/10/21 13:42:30;;;;;;;18.27;2.30;;;;;;;;;;5046704;28;20028;-59
2021/10/21 13:44:55;;;;;;;26.40;2.47;;;;;;;;;;5048633;28;20028;-60
2021/10/21 13:47:42;;;;;;;19.42;3.15;;;;;;;;;;5046544;28;20020;-60
2021/10/21 13:50:26;;;;;;;19.75;2.05;;;;;;;;;;5048050;28;20028;-59
2021/10/21 13:52:55;;;;;;;24.73;2.65;;;;;;;;;;5047569;28;20029;-60
2021/10/21 13:58:58;;;;;;;15.20;2.38;;;;;;;;;;5047377;28;20078;-59
2021/10/21 14:01:34;;;;;;;23.90;2.97;;;;;;;;;;5046171;28;20021;-60
2021/10/21 14:04:02;;;;;;;15.80;2.03;;;;;;;;;;5046921;28;20890;-59
2021/10/21 14:06:31;;;;;;;20.05;2.08;;;;;;;;;;5062601;28;20491;-60
2021/10/21 14:09:05;;;;;;;19.08;2.10;;;;;;;;;;5059078;28;20135;-58
2021/10/21 14:11:33;;;;;;;10.75;2.13;;;;;;;;;;5047448;28;20032;-60
2021/10/21 14:13:59;;;;;;;21.25;2.42;;;;;;;;;;5044908;28;20047;-59
2021/10/21 14:16:25;;;;;;;9.90;1.92;;;;;;;;;;5049037;28;20771;-58
2021/10/21 14:26:08;;;;;;;6.03;1.65;;;;;;;;;;5048520;28;20151;-59
2021/10/21 14:28:34;;;;;;;15.18;1.80;;;;;;;;;;5024190;28;20923;-59
2021/10/21 14:31:02;;;;;;;12.07;1.30;;;;;;;;;;5044944;28;20103;-59
2021/10/21 14:33:27;;;;;;;10.32;1.73;;;;;;;;;;5043080;28;20652;-59
2021/10/21 14:35:55;;;;;;;13.73;2.85;;;;;;;;;;5028842;28;20036;-58
2021/10/21 14:38:21;;;;;;;11.27;2.08;;;;;;;;;;5036810;28;20033;-60
2021/10/21 14:40:47;;;;;;;20.02;1.85;;;;;;;;;;5030444;28;20086;-60
2021/10/21 14:43:13;;;;;;;12.43;1.90;;;;;;;;;;5045700;28;20099;-60
2021/10/21 14:45:41;;;;;;;9.90;1.38;;;;;;;;;;5062104;28;20574;-59
2021/10/21 14:48:08;;;;;;;14.98;2.10;;;;;;;;;;5044562;28;20118;-59
2021/10/21 14:50:40;;;;;;;13.80;1.48;;;;;;;;;;5047815;28;20032;-59
2021/10/21 14:53:18;;;;;;;16.45;1.10;;;;;;;;;;5045862;28;20116;-59
2021/10/21 14:55:46;;;;;;;9.90;1.52;;;;;;;;;;5049098;28;20074;-59
2021/10/21 15:01:48;;;;;;;18.73;1.42;;;;;;;;;;5047384;28;20036;-60
2021/10/21 15:04:16;;;;;;;12.90;1.40;;;;;;;;;;5047517;28;21680;-60
2021/10/21 15:09:52;;;;;;;10.82;1.65;;;;;;;;;;5003375;28;20535;-60
2021/10/21 15:27:40;;;;;;;9.73;1.95;;;;;;;;;;5044963;28;19982;-60
2021/10/21 15:30:09;;;;;;;10.43;2.13;;;;;;;;;;5047417;28;20041;-61
2021/10/21 15:32:35;;;;;;;9.05;0.90;;;;;;;;;;5046338;28;20028;-61
2021/10/21 15:35:04;;;;;;;9.98;2.10;;;;;;;;;;5028673;28;20042;-61
2021/10/21 15:37:32;;;;;;;6.93;1.13;;;;;;;;;;5046846;28;20140;-61
2021/10/21 15:40:03;;;;;;;7.25;1.30;;;;;;;;;;5034099;28;20701;-59
2021/10/21 15:42:32;;;;;;;7.63;1.20;;;;;;;;;;5023630;28;20058;-59
2021/10/21 15:47:49;;;;;;;6.03;1.30;;;;;;;;;;5050557;28;20041;-61
2021/10/21 16:13:46;;;;;;;4.18;0.55;;;;;;;;;;5029251;28;20554;-59
2021/10/21 16:20:08;;;;;;;6.97;0.90;;;;;;;;;;5028233;28;21028;-61
2021/10/21 16:22:44;;;;;;;8.13;0.93;;;;;;;;;;5028950;28;20102;-60
2021/10/21 16:28:04;;;;;;;5.35;0.93;;;;;;;;;;5030384;28;20832;-60
2021/10/21 16:30:29;;;;;;;;;;;;;;;;;;5028784;28;20467;-58
2021/10/21 16:32:59;;;;;;;6.32;0.80;;;;;;;;;;5027207;28;19920;-60